sensor_id;sensor_type;location;lat;lon;timestamp;P1;durP1;ratioP1;P2;durP2;ratioP2
72882;SDS011;61017;37.812;-122.286;2023-02-01T00:00:09;2.35;;;0.70;;
72882;SDS011;61017;37.812;-122.286;2023-02-01T00:01:42;0.95;;;0.70;;
72882;SDS011;61017;37.812;-122.286;2023-02-01T00:03:13;1.02;;;0.68;;
72882;SDS011;61017;37.812;-122.286;2023-02-01T00:04:45;2.03;;;0.80;;
72882;SDS011;61017;37.812;-122.286;2023-02-01T00:06:16;2.17;;;0.77;;
72882;SDS011;61017;37.812;-122.286;2023-02-01T00:07:48;1.27;;;0.77;;
72882;SDS011;61017;37.812;-122.286;2023-02-01T00:09:20;2.65;;;0.90;;
72882;SDS011;61017;37.812;-122.286;2023-02-01T00:11:25;2.42;;;0.80;;
72882;SDS011;61017;37.812;-122.286;2023-02-01T00:12:49;1.77;;;0.85;;
72882;SDS011;61017;37.812;-122.286;2023-02-01T00:14:21;1.48;;;0.90;;
72882;SDS011;61017;37.812;-122.286;2023-02-01T00:15:52;3.10;;;0.90;;
72882;SDS011;61017;37.812;-122.286;2023-02-01T00:17:24;1.75;;;0.80;;
72882;SDS011;61017;37.812;-122.286;2023-02-01T00:18:57;1.52;;;0.77;;
72882;SDS011;61017;37.812;-122.286;2023-02-01T00:20:30;2.08;;;0.90;;
72882;SDS011;61017;37.812;-122.286;2023-02-01T00:22:02;2.60;;;1.00;;
72882;SDS011;61017;37.812;-122.286;2023-02-01T00:23:34;1.77;;;0.85;;
72882;SDS011;61017;37.812;-122.286;2023-02-01T00:25:06;2.20;;;0.90;;
72882;SDS011;61017;37.812;-122.286;2023-02-01T00:29:42;2.38;;;0.80;;
72882;SDS011;61017;37.812;-122.286;2023-02-01T00:31:34;2.90;;;1.05;;
72882;SDS011;61017;37.812;-122.286;2023-02-01T00:33:05;1.30;;;0.80;;
72882;SDS011;61017;37.812;-122.286;2023-02-01T00:34:37;1.63;;;0.80;;
72882;SDS011;61017;37.812;-122.286;2023-02-01T00:36:09;2.08;;;0.75;;
72882;SDS011;61017;37.812;-122.286;2023-02-01T00:37:41;2.08;;;0.80;;
72882;SDS011;61017;37.812;-122.286;2023-02-01T00:39:12;2.55;;;0.80;;
72882;SDS011;61017;37.812;-122.286;2023-02-01T00:40:44;1.88;;;0.98;;
72882;SDS011;61017;37.812;-122.286;2023-02-01T00:42:16;1.85;;;0.80;;
72882;SDS011;61017;37.812;-122.286;2023-02-01T00:43:48;1.73;;;0.90;;
72882;SDS011;61017;37.812;-122.286;2023-02-01T00:45:20;1.60;;;0.80;;
72882;SDS011;61017;37.812;-122.286;2023-02-01T00:46:52;1.92;;;0.80;;
72882;SDS011;61017;37.812;-122.286;2023-02-01T00:48:23;2.55;;;0.80;;
72882;SDS011;61017;37.812;-122.286;2023-02-01T00:49:56;2.05;;;0.60;;
72882;SDS011;61017;37.812;-122.286;2023-02-01T00:51:27;1.35;;;0.80;;
72882;SDS011;61017;37.812;-122.286;2023-02-01T00:53:00;1.58;;;0.88;;
72882;SDS011;61017;37.812;-122.286;2023-02-01T00:54:32;1.60;;;0.70;;
72882;SDS011;61017;37.812;-122.286;2023-02-01T00:56:04;1.98;;;0.88;;
72882;SDS011;61017;37.812;-122.286;2023-02-01T00:57:36;0.80;;;0.70;;
72882;SDS011;61017;37.812;-122.286;2023-02-01T00:59:10;2.20;;;0.98;;
72882;SDS011;61017;37.812;-122.286;2023-02-01T01:00:42;2.58;;;0.80;;
72882;SDS011;61017;37.812;-122.286;2023-02-01T01:02:14;2.65;;;0.70;;
72882;SDS011;61017;37.812;-122.286;2023-02-01T01:03:47;1.40;;;0.70;;
72882;SDS011;61017;37.812;-122.286;2023-02-01T01:05:20;1.65;;;0.75;;
72882;SDS011;61017;37.812;-122.286;2023-02-01T01:06:52;1.67;;;0.82;;
72882;SDS011;61017;37.812;-122.286;2023-02-01T01:08:23;1.85;;;0.82;;
72882;SDS011;61017;37.812;-122.286;2023-02-01T01:09:55;1.40;;;0.73;;
72882;SDS011;61017;37.812;-122.286;2023-02-01T01:11:28;2.78;;;0.80;;
72882;SDS011;61017;37.812;-122.286;2023-02-01T01:13:01;2.38;;;0.77;;
72882;SDS011;61017;37.812;-122.286;2023-02-01T01:14:33;1.83;;;0.73;;
72882;SDS011;61017;37.812;-122.286;2023-02-01T01:16:05;2.38;;;1.00;;
72882;SDS011;61017;37.812;-122.286;2023-02-01T01:17:38;1.33;;;0.63;;
72882;SDS011;61017;37.812;-122.286;2023-02-01T01:19:09;2.50;;;0.80;;
72882;SDS011;61017;37.812;-122.286;2023-02-01T01:20:41;1.13;;;0.70;;
72882;SDS011;61017;37.812;-122.286;2023-02-01T01:22:13;3.80;;;0.88;;
72882;SDS011;61017;37.812;-122.286;2023-02-01T01:23:44;1.85;;;0.80;;
72882;SDS011;61017;37.812;-122.286;2023-02-01T01:25:17;2.15;;;0.90;;
72882;SDS011;61017;37.812;-122.286;2023-02-01T01:26:49;2.45;;;0.90;;
72882;SDS011;61017;37.812;-122.286;2023-02-01T01:28:20;1.58;;;0.90;;
72882;SDS011;61017;37.812;-122.286;2023-02-01T01:29:52;1.10;;;0.80;;
72882;SDS011;61017;37.812;-122.286;2023-02-01T01:31:23;2.33;;;1.00;;
72882;SDS011;61017;37.812;-122.286;2023-02-01T01:32:55;2.17;;;0.85;;
72882;SDS011;61017;37.812;-122.286;2023-02-01T01:34:27;1.60;;;0.70;;
72882;SDS011;61017;37.812;-122.286;2023-02-01T01:35:58;2.10;;;0.80;;
72882;SDS011;61017;37.812;-122.286;2023-02-01T01:37:32;1.88;;;0.77;;
72882;SDS011;61017;37.812;-122.286;2023-02-01T01:39:04;2.70;;;1.00;;
72882;SDS011;61017;37.812;-122.286;2023-02-01T01:40:36;2.38;;;0.90;;
72882;SDS011;61017;37.812;-122.286;2023-02-01T01:42:09;4.55;;;0.95;;
72882;SDS011;61017;37.812;-122.286;2023-02-01T01:45:39;1.55;;;0.90;;
72882;SDS011;61017;37.812;-122.286;2023-02-01T01:47:11;2.58;;;1.08;;
72882;SDS011;61017;37.812;-122.286;2023-02-01T01:48:45;2.80;;;1.20;;
72882;SDS011;61017;37.812;-122.286;2023-02-01T01:50:19;4.03;;;1.27;;
72882;SDS011;61017;37.812;-122.286;2023-02-01T01:51:55;2.30;;;0.90;;
72882;SDS011;61017;37.812;-122.286;2023-02-01T01:53:33;2.15;;;0.90;;
72882;SDS011;61017;37.812;-122.286;2023-02-01T01:55:14;1.97;;;0.90;;
72882;SDS011;61017;37.812;-122.286;2023-02-01T01:56:50;3.30;;;0.90;;
72882;SDS011;61017;37.812;-122.286;2023-02-01T01:58:26;2.00;;;1.00;;
72882;SDS011;61017;37.812;-122.286;2023-02-01T02:00:10;1.77;;;0.93;;
72882;SDS011;61017;37.812;-122.286;2023-02-01T02:01:46;2.45;;;1.02;;
72882;SDS011;61017;37.812;-122.286;2023-02-01T02:04:58;2.38;;;0.90;;
72882;SDS011;61017;37.812;-122.286;2023-02-01T02:06:33;3.13;;;1.00;;
72882;SDS011;61017;37.812;-122.286;2023-02-01T02:08:18;3.35;;;1.00;;
72882;SDS011;61017;37.812;-122.286;2023-02-01T02:09:51;2.35;;;0.95;;
72882;SDS011;61017;37.812;-122.286;2023-02-01T02:11:23;2.53;;;1.10;;
72882;SDS011;61017;37.812;-122.286;2023-02-01T02:12:54;2.35;;;0.93;;
72882;SDS011;61017;37.812;-122.286;2023-02-01T02:14:26;3.00;;;1.00;;
72882;SDS011;61017;37.812;-122.286;2023-02-01T02:16:08;3.65;;;1.25;;
72882;SDS011;61017;37.812;-122.286;2023-02-01T02:18:25;2.60;;;1.08;;
72882;SDS011;61017;37.812;-122.286;2023-02-01T02:27:51;3.20;;;1.00;;
72882;SDS011;61017;37.812;-122.286;2023-02-01T02:29:12;1.50;;;0.82;;
72882;SDS011;61017;37.812;-122.286;2023-02-01T02:30:55;1.85;;;1.00;;
72882;SDS011;61017;37.812;-122.286;2023-02-01T02:32:55;3.47;;;1.30;;
72882;SDS011;61017;37.812;-122.286;2023-02-01T02:34:53;2.67;;;1.15;;
72882;SDS011;61017;37.812;-122.286;2023-02-01T02:38:15;3.05;;;1.33;;
72882;SDS011;61017;37.812;-122.286;2023-02-01T02:40:18;3.45;;;1.48;;
72882;SDS011;61017;37.812;-122.286;2023-02-01T02:42:12;4.30;;;1.38;;
72882;SDS011;61017;37.812;-122.286;2023-02-01T02:43:48;4.32;;;1.40;;
72882;SDS011;61017;37.812;-122.286;2023-02-01T02:45:29;3.78;;;1.50;;
72882;SDS011;61017;37.812;-122.286;2023-02-01T02:47:23;2.95;;;1.40;;
72882;SDS011;61017;37.812;-122.286;2023-02-01T02:52:39;4.40;;;1.40;;
72882;SDS011;61017;37.812;-122.286;2023-02-01T02:54:24;3.65;;;1.42;;
72882;SDS011;61017;37.812;-122.286;2023-02-01T02:56:00;3.40;;;1.70;;
72882;SDS011;61017;37.812;-122.286;2023-02-01T02:57:36;4.20;;;1.88;;
72882;SDS011;61017;37.812;-122.286;2023-02-01T02:59:11;4.63;;;1.80;;
72882;SDS011;61017;37.812;-122.286;2023-02-01T03:00:46;3.72;;;1.90;;
72882;SDS011;61017;37.812;-122.286;2023-02-01T03:02:19;4.68;;;1.80;;
72882;SDS011;61017;37.812;-122.286;2023-02-01T03:03:52;3.83;;;1.90;;
72882;SDS011;61017;37.812;-122.286;2023-02-01T03:05:23;4.13;;;1.90;;
72882;SDS011;61017;37.812;-122.286;2023-02-01T03:06:55;5.30;;;2.00;;
72882;SDS011;61017;37.812;-122.286;2023-02-01T03:08:28;3.60;;;1.95;;
72882;SDS011;61017;37.812;-122.286;2023-02-01T03:10:07;4.63;;;2.58;;
72882;SDS011;61017;37.812;-122.286;2023-02-01T03:11:58;5.32;;;2.60;;
72882;SDS011;61017;37.812;-122.286;2023-02-01T03:15:30;5.32;;;2.88;;
72882;SDS011;61017;37.812;-122.286;2023-02-01T03:17:26;6.70;;;3.17;;
72882;SDS011;61017;37.812;-122.286;2023-02-01T03:19:06;8.07;;;3.17;;
72882;SDS011;61017;37.812;-122.286;2023-02-01T03:20:45;7.30;;;3.22;;
72882;SDS011;61017;37.812;-122.286;2023-02-01T03:22:23;6.53;;;3.20;;
72882;SDS011;61017;37.812;-122.286;2023-02-01T03:23:59;6.47;;;2.83;;
72882;SDS011;61017;37.812;-122.286;2023-02-01T03:25:35;6.40;;;3.45;;
72882;SDS011;61017;37.812;-122.286;2023-02-01T03:27:15;6.90;;;3.70;;
72882;SDS011;61017;37.812;-122.286;2023-02-01T03:28:51;7.00;;;3.50;;
72882;SDS011;61017;37.812;-122.286;2023-02-01T03:30:33;7.20;;;3.60;;
72882;SDS011;61017;37.812;-122.286;2023-02-01T03:32:07;7.13;;;3.40;;
72882;SDS011;61017;37.812;-122.286;2023-02-01T03:33:39;8.45;;;3.20;;
72882;SDS011;61017;37.812;-122.286;2023-02-01T03:35:11;6.45;;;3.55;;
72882;SDS011;61017;37.812;-122.286;2023-02-01T03:36:50;8.25;;;3.55;;
72882;SDS011;61017;37.812;-122.286;2023-02-01T03:40:21;7.10;;;3.35;;
72882;SDS011;61017;37.812;-122.286;2023-02-01T03:41:58;7.32;;;3.58;;
72882;SDS011;61017;37.812;-122.286;2023-02-01T03:43:34;7.38;;;3.25;;
72882;SDS011;61017;37.812;-122.286;2023-02-01T03:45:31;5.47;;;3.10;;
72882;SDS011;61017;37.812;-122.286;2023-02-01T03:48:43;7.13;;;3.20;;
72882;SDS011;61017;37.812;-122.286;2023-02-01T03:50:17;5.60;;;3.10;;
72882;SDS011;61017;37.812;-122.286;2023-02-01T03:51:50;8.05;;;3.70;;
72882;SDS011;61017;37.812;-122.286;2023-02-01T03:53:23;6.68;;;3.78;;
72882;SDS011;61017;37.812;-122.286;2023-02-01T03:54:56;8.07;;;3.65;;
72882;SDS011;61017;37.812;-122.286;2023-02-01T03:56:29;6.07;;;3.33;;
72882;SDS011;61017;37.812;-122.286;2023-02-01T03:59:44;9.38;;;3.72;;
72882;SDS011;61017;37.812;-122.286;2023-02-01T04:01:16;7.50;;;3.85;;
72882;SDS011;61017;37.812;-122.286;2023-02-01T04:02:48;9.00;;;4.00;;
72882;SDS011;61017;37.812;-122.286;2023-02-01T04:04:19;8.43;;;4.20;;
72882;SDS011;61017;37.812;-122.286;2023-02-01T04:05:51;7.32;;;4.22;;
72882;SDS011;61017;37.812;-122.286;2023-02-01T04:07:23;9.75;;;4.57;;
72882;SDS011;61017;37.812;-122.286;2023-02-01T04:08:55;10.65;;;4.40;;
72882;SDS011;61017;37.812;-122.286;2023-02-01T04:10:26;8.85;;;4.78;;
72882;SDS011;61017;37.812;-122.286;2023-02-01T04:11:58;10.13;;;4.80;;
72882;SDS011;61017;37.812;-122.286;2023-02-01T04:13:30;9.52;;;4.82;;
72882;SDS011;61017;37.812;-122.286;2023-02-01T04:15:02;9.95;;;4.95;;
72882;SDS011;61017;37.812;-122.286;2023-02-01T04:16:34;9.80;;;4.83;;
72882;SDS011;61017;37.812;-122.286;2023-02-01T04:18:05;10.15;;;5.00;;
72882;SDS011;61017;37.812;-122.286;2023-02-01T04:19:37;9.82;;;4.78;;
72882;SDS011;61017;37.812;-122.286;2023-02-01T04:21:09;11.80;;;5.05;;
72882;SDS011;61017;37.812;-122.286;2023-02-01T04:22:40;12.60;;;4.80;;
72882;SDS011;61017;37.812;-122.286;2023-02-01T04:24:12;10.45;;;5.28;;
72882;SDS011;61017;37.812;-122.286;2023-02-01T04:25:43;10.60;;;4.80;;
72882;SDS011;61017;37.812;-122.286;2023-02-01T04:27:15;8.60;;;4.72;;
72882;SDS011;61017;37.812;-122.286;2023-02-01T04:28:47;11.70;;;4.90;;
72882;SDS011;61017;37.812;-122.286;2023-02-01T04:30:18;9.60;;;4.43;;
72882;SDS011;61017;37.812;-122.286;2023-02-01T04:31:50;9.13;;;4.30;;
72882;SDS011;61017;37.812;-122.286;2023-02-01T04:33:21;9.82;;;4.78;;
72882;SDS011;61017;37.812;-122.286;2023-02-01T04:34:53;10.93;;;4.57;;
72882;SDS011;61017;37.812;-122.286;2023-02-01T04:36:25;10.07;;;4.45;;
72882;SDS011;61017;37.812;-122.286;2023-02-01T04:37:56;8.02;;;4.35;;
72882;SDS011;61017;37.812;-122.286;2023-02-01T04:39:28;10.25;;;4.35;;
72882;SDS011;61017;37.812;-122.286;2023-02-01T04:40:59;10.40;;;4.65;;
72882;SDS011;61017;37.812;-122.286;2023-02-01T04:42:31;10.25;;;4.47;;
72882;SDS011;61017;37.812;-122.286;2023-02-01T04:44:03;12.75;;;4.75;;
72882;SDS011;61017;37.812;-122.286;2023-02-01T04:45:35;10.80;;;4.30;;
72882;SDS011;61017;37.812;-122.286;2023-02-01T04:47:07;9.85;;;4.82;;
72882;SDS011;61017;37.812;-122.286;2023-02-01T04:48:39;11.73;;;4.40;;
72882;SDS011;61017;37.812;-122.286;2023-02-01T04:50:10;8.75;;;4.10;;
72882;SDS011;61017;37.812;-122.286;2023-02-01T04:51:42;10.25;;;4.32;;
72882;SDS011;61017;37.812;-122.286;2023-02-01T04:53:14;9.55;;;4.10;;
72882;SDS011;61017;37.812;-122.286;2023-02-01T04:54:46;8.70;;;4.43;;
72882;SDS011;61017;37.812;-122.286;2023-02-01T04:56:17;10.90;;;4.30;;
72882;SDS011;61017;37.812;-122.286;2023-02-01T04:57:49;9.05;;;3.95;;
72882;SDS011;61017;37.812;-122.286;2023-02-01T04:59:20;8.60;;;4.13;;
72882;SDS011;61017;37.812;-122.286;2023-02-01T05:00:52;10.05;;;4.50;;
72882;SDS011;61017;37.812;-122.286;2023-02-01T05:02:24;9.63;;;4.35;;
72882;SDS011;61017;37.812;-122.286;2023-02-01T05:03:55;8.48;;;4.00;;
72882;SDS011;61017;37.812;-122.286;2023-02-01T05:05:27;9.43;;;4.25;;
72882;SDS011;61017;37.812;-122.286;2023-02-01T05:06:59;10.35;;;4.50;;
72882;SDS011;61017;37.812;-122.286;2023-02-01T05:08:31;9.15;;;4.43;;
72882;SDS011;61017;37.812;-122.286;2023-02-01T05:10:03;10.02;;;4.70;;
72882;SDS011;61017;37.812;-122.286;2023-02-01T05:11:35;10.57;;;4.40;;
72882;SDS011;61017;37.812;-122.286;2023-02-01T05:13:07;8.07;;;4.40;;
72882;SDS011;61017;37.812;-122.286;2023-02-01T05:14:40;8.50;;;4.13;;
72882;SDS011;61017;37.812;-122.286;2023-02-01T05:16:11;7.47;;;4.13;;
72882;SDS011;61017;37.812;-122.286;2023-02-01T05:17:43;7.97;;;4.05;;
72882;SDS011;61017;37.812;-122.286;2023-02-01T05:19:14;8.88;;;4.05;;
72882;SDS011;61017;37.812;-122.286;2023-02-01T05:20:46;9.90;;;4.18;;
72882;SDS011;61017;37.812;-122.286;2023-02-01T05:22:17;10.00;;;4.88;;
72882;SDS011;61017;37.812;-122.286;2023-02-01T05:23:49;9.77;;;4.45;;
72882;SDS011;61017;37.812;-122.286;2023-02-01T05:25:20;7.50;;;4.00;;
72882;SDS011;61017;37.812;-122.286;2023-02-01T05:26:52;9.05;;;4.88;;
72882;SDS011;61017;37.812;-122.286;2023-02-01T05:28:24;7.15;;;4.40;;
72882;SDS011;61017;37.812;-122.286;2023-02-01T05:29:56;8.93;;;4.70;;
72882;SDS011;61017;37.812;-122.286;2023-02-01T05:31:27;9.25;;;4.68;;
72882;SDS011;61017;37.812;-122.286;2023-02-01T05:32:59;8.30;;;4.47;;
72882;SDS011;61017;37.812;-122.286;2023-02-01T05:34:30;9.60;;;4.70;;
72882;SDS011;61017;37.812;-122.286;2023-02-01T05:36:02;10.77;;;5.30;;
72882;SDS011;61017;37.812;-122.286;2023-02-01T05:37:34;10.23;;;4.78;;
72882;SDS011;61017;37.812;-122.286;2023-02-01T05:39:05;10.07;;;4.25;;
72882;SDS011;61017;37.812;-122.286;2023-02-01T05:40:37;12.10;;;4.50;;
72882;SDS011;61017;37.812;-122.286;2023-02-01T05:42:09;9.77;;;4.40;;
72882;SDS011;61017;37.812;-122.286;2023-02-01T05:43:40;10.55;;;4.53;;
72882;SDS011;61017;37.812;-122.286;2023-02-01T05:45:12;8.60;;;4.50;;
72882;SDS011;61017;37.812;-122.286;2023-02-01T05:46:43;8.00;;;4.55;;
72882;SDS011;61017;37.812;-122.286;2023-02-01T05:48:15;10.43;;;4.78;;
72882;SDS011;61017;37.812;-122.286;2023-02-01T05:49:46;11.65;;;4.38;;
72882;SDS011;61017;37.812;-122.286;2023-02-01T05:51:18;8.85;;;4.63;;
72882;SDS011;61017;37.812;-122.286;2023-02-01T05:52:49;8.98;;;4.68;;
72882;SDS011;61017;37.812;-122.286;2023-02-01T05:54:21;8.00;;;4.20;;
72882;SDS011;61017;37.812;-122.286;2023-02-01T05:55:52;9.48;;;4.78;;
72882;SDS011;61017;37.812;-122.286;2023-02-01T05:57:24;9.45;;;4.95;;
72882;SDS011;61017;37.812;-122.286;2023-02-01T05:58:55;8.32;;;4.47;;
72882;SDS011;61017;37.812;-122.286;2023-02-01T06:00:27;8.10;;;4.45;;
72882;SDS011;61017;37.812;-122.286;2023-02-01T06:01:59;8.85;;;4.50;;
72882;SDS011;61017;37.812;-122.286;2023-02-01T06:03:30;9.90;;;4.30;;
72882;SDS011;61017;37.812;-122.286;2023-02-01T06:05:03;8.68;;;4.82;;
72882;SDS011;61017;37.812;-122.286;2023-02-01T06:06:35;10.13;;;4.60;;
72882;SDS011;61017;37.812;-122.286;2023-02-01T06:08:06;7.88;;;4.20;;
72882;SDS011;61017;37.812;-122.286;2023-02-01T06:09:38;11.70;;;4.78;;
72882;SDS011;61017;37.812;-122.286;2023-02-01T06:11:09;8.30;;;4.68;;
72882;SDS011;61017;37.812;-122.286;2023-02-01T06:12:41;9.27;;;4.30;;
72882;SDS011;61017;37.812;-122.286;2023-02-01T06:14:13;8.73;;;4.50;;
72882;SDS011;61017;37.812;-122.286;2023-02-01T06:15:45;8.63;;;4.50;;
72882;SDS011;61017;37.812;-122.286;2023-02-01T06:17:16;9.45;;;4.65;;
72882;SDS011;61017;37.812;-122.286;2023-02-01T06:18:48;8.98;;;4.40;;
72882;SDS011;61017;37.812;-122.286;2023-02-01T06:20:20;9.30;;;4.70;;
72882;SDS011;61017;37.812;-122.286;2023-02-01T06:21:52;9.45;;;4.63;;
72882;SDS011;61017;37.812;-122.286;2023-02-01T06:23:24;10.32;;;4.60;;
72882;SDS011;61017;37.812;-122.286;2023-02-01T06:24:55;9.45;;;4.30;;
72882;SDS011;61017;37.812;-122.286;2023-02-01T06:26:27;7.85;;;4.20;;
72882;SDS011;61017;37.812;-122.286;2023-02-01T06:28:02;8.63;;;4.57;;
72882;SDS011;61017;37.812;-122.286;2023-02-01T06:29:33;7.93;;;4.53;;
72882;SDS011;61017;37.812;-122.286;2023-02-01T06:31:05;13.13;;;4.95;;
72882;SDS011;61017;37.812;-122.286;2023-02-01T06:32:37;8.48;;;4.60;;
72882;SDS011;61017;37.812;-122.286;2023-02-01T06:34:09;8.25;;;4.60;;
72882;SDS011;61017;37.812;-122.286;2023-02-01T06:35:43;9.15;;;4.70;;
72882;SDS011;61017;37.812;-122.286;2023-02-01T06:37:14;7.80;;;4.63;;
72882;SDS011;61017;37.812;-122.286;2023-02-01T06:38:47;8.63;;;4.60;;
72882;SDS011;61017;37.812;-122.286;2023-02-01T06:40:18;11.93;;;5.18;;
72882;SDS011;61017;37.812;-122.286;2023-02-01T06:41:50;9.07;;;4.63;;
72882;SDS011;61017;37.812;-122.286;2023-02-01T06:43:22;9.07;;;5.10;;
72882;SDS011;61017;37.812;-122.286;2023-02-01T06:44:55;9.00;;;4.82;;
72882;SDS011;61017;37.812;-122.286;2023-02-01T06:46:26;9.88;;;5.20;;
72882;SDS011;61017;37.812;-122.286;2023-02-01T06:47:58;9.43;;;4.88;;
72882;SDS011;61017;37.812;-122.286;2023-02-01T06:49:30;9.63;;;5.10;;
72882;SDS011;61017;37.812;-122.286;2023-02-01T06:51:02;8.48;;;4.55;;
72882;SDS011;61017;37.812;-122.286;2023-02-01T06:52:33;8.68;;;4.95;;
72882;SDS011;61017;37.812;-122.286;2023-02-01T06:54:05;9.80;;;5.18;;
72882;SDS011;61017;37.812;-122.286;2023-02-01T06:55:37;8.73;;;4.85;;
72882;SDS011;61017;37.812;-122.286;2023-02-01T06:57:08;8.43;;;4.80;;
72882;SDS011;61017;37.812;-122.286;2023-02-01T06:58:40;9.88;;;5.35;;
72882;SDS011;61017;37.812;-122.286;2023-02-01T07:00:12;9.75;;;5.05;;
72882;SDS011;61017;37.812;-122.286;2023-02-01T07:01:44;9.03;;;5.23;;
72882;SDS011;61017;37.812;-122.286;2023-02-01T07:03:15;11.18;;;5.30;;
72882;SDS011;61017;37.812;-122.286;2023-02-01T07:04:47;11.60;;;5.85;;
72882;SDS011;61017;37.812;-122.286;2023-02-01T07:06:18;9.25;;;5.25;;
72882;SDS011;61017;37.812;-122.286;2023-02-01T07:07:50;10.77;;;5.80;;
72882;SDS011;61017;37.812;-122.286;2023-02-01T07:09:22;8.50;;;5.15;;
72882;SDS011;61017;37.812;-122.286;2023-02-01T07:10:53;11.18;;;6.00;;
72882;SDS011;61017;37.812;-122.286;2023-02-01T07:12:25;11.10;;;5.82;;
72882;SDS011;61017;37.812;-122.286;2023-02-01T07:13:56;11.18;;;5.80;;
72882;SDS011;61017;37.812;-122.286;2023-02-01T07:15:28;10.50;;;5.50;;
72882;SDS011;61017;37.812;-122.286;2023-02-01T07:16:59;11.30;;;5.75;;
72882;SDS011;61017;37.812;-122.286;2023-02-01T07:18:31;11.80;;;6.00;;
72882;SDS011;61017;37.812;-122.286;2023-02-01T07:20:03;11.23;;;5.73;;
72882;SDS011;61017;37.812;-122.286;2023-02-01T07:21:35;11.93;;;5.83;;
72882;SDS011;61017;37.812;-122.286;2023-02-01T07:23:08;10.45;;;6.10;;
72882;SDS011;61017;37.812;-122.286;2023-02-01T07:24:41;11.45;;;6.32;;
72882;SDS011;61017;37.812;-122.286;2023-02-01T07:26:13;10.32;;;5.53;;
72882;SDS011;61017;37.812;-122.286;2023-02-01T07:27:46;9.98;;;5.50;;
72882;SDS011;61017;37.812;-122.286;2023-02-01T07:29:18;9.60;;;5.72;;
72882;SDS011;61017;37.812;-122.286;2023-02-01T07:30:50;9.57;;;5.68;;
72882;SDS011;61017;37.812;-122.286;2023-02-01T07:32:22;11.43;;;6.07;;
72882;SDS011;61017;37.812;-122.286;2023-02-01T07:33:53;11.45;;;6.03;;
72882;SDS011;61017;37.812;-122.286;2023-02-01T07:35:25;11.43;;;5.85;;
72882;SDS011;61017;37.812;-122.286;2023-02-01T07:36:56;12.52;;;6.00;;
72882;SDS011;61017;37.812;-122.286;2023-02-01T07:38:28;9.88;;;5.80;;
72882;SDS011;61017;37.812;-122.286;2023-02-01T07:39:59;11.15;;;5.97;;
72882;SDS011;61017;37.812;-122.286;2023-02-01T07:41:31;11.23;;;6.38;;
72882;SDS011;61017;37.812;-122.286;2023-02-01T07:43:02;10.50;;;5.70;;
72882;SDS011;61017;37.812;-122.286;2023-02-01T07:44:34;10.82;;;6.28;;
72882;SDS011;61017;37.812;-122.286;2023-02-01T07:46:06;10.02;;;5.70;;
72882;SDS011;61017;37.812;-122.286;2023-02-01T07:47:38;9.15;;;5.95;;
72882;SDS011;61017;37.812;-122.286;2023-02-01T07:49:10;9.90;;;6.22;;
72882;SDS011;61017;37.812;-122.286;2023-02-01T07:50:41;13.52;;;6.40;;
72882;SDS011;61017;37.812;-122.286;2023-02-01T07:52:13;10.70;;;6.28;;
72882;SDS011;61017;37.812;-122.286;2023-02-01T07:53:44;13.02;;;6.38;;
72882;SDS011;61017;37.812;-122.286;2023-02-01T07:55:16;12.80;;;6.50;;
72882;SDS011;61017;37.812;-122.286;2023-02-01T07:56:48;10.75;;;6.30;;
72882;SDS011;61017;37.812;-122.286;2023-02-01T07:58:19;10.93;;;6.10;;
72882;SDS011;61017;37.812;-122.286;2023-02-01T07:59:51;11.07;;;5.88;;
72882;SDS011;61017;37.812;-122.286;2023-02-01T08:01:23;11.32;;;6.57;;
72882;SDS011;61017;37.812;-122.286;2023-02-01T08:02:59;12.93;;;6.40;;
72882;SDS011;61017;37.812;-122.286;2023-02-01T08:04:30;10.18;;;5.80;;
72882;SDS011;61017;37.812;-122.286;2023-02-01T08:06:02;13.15;;;6.45;;
72882;SDS011;61017;37.812;-122.286;2023-02-01T08:07:34;12.68;;;6.88;;
72882;SDS011;61017;37.812;-122.286;2023-02-01T08:09:06;10.55;;;6.55;;
72882;SDS011;61017;37.812;-122.286;2023-02-01T08:10:38;11.77;;;6.18;;
72882;SDS011;61017;37.812;-122.286;2023-02-01T08:12:09;10.82;;;6.32;;
72882;SDS011;61017;37.812;-122.286;2023-02-01T08:13:41;10.40;;;6.18;;
72882;SDS011;61017;37.812;-122.286;2023-02-01T08:15:14;12.23;;;6.18;;
72882;SDS011;61017;37.812;-122.286;2023-02-01T08:16:45;12.02;;;6.28;;
72882;SDS011;61017;37.812;-122.286;2023-02-01T08:18:17;10.95;;;6.32;;
72882;SDS011;61017;37.812;-122.286;2023-02-01T08:19:49;11.90;;;6.68;;
72882;SDS011;61017;37.812;-122.286;2023-02-01T08:21:22;12.18;;;6.60;;
72882;SDS011;61017;37.812;-122.286;2023-02-01T08:22:56;9.20;;;5.82;;
72882;SDS011;61017;37.812;-122.286;2023-02-01T08:24:27;13.77;;;5.93;;
72882;SDS011;61017;37.812;-122.286;2023-02-01T08:28:00;12.05;;;6.13;;
72882;SDS011;61017;37.812;-122.286;2023-02-01T08:29:31;11.55;;;6.55;;
72882;SDS011;61017;37.812;-122.286;2023-02-01T08:31:07;12.20;;;6.32;;
72882;SDS011;61017;37.812;-122.286;2023-02-01T08:32:41;12.00;;;6.45;;
72882;SDS011;61017;37.812;-122.286;2023-02-01T08:34:12;11.25;;;6.15;;
72882;SDS011;61017;37.812;-122.286;2023-02-01T08:35:44;11.75;;;6.30;;
72882;SDS011;61017;37.812;-122.286;2023-02-01T08:37:15;10.55;;;6.15;;
72882;SDS011;61017;37.812;-122.286;2023-02-01T08:38:47;11.18;;;6.45;;
72882;SDS011;61017;37.812;-122.286;2023-02-01T08:40:19;12.30;;;6.82;;
72882;SDS011;61017;37.812;-122.286;2023-02-01T08:41:50;11.80;;;7.05;;
72882;SDS011;61017;37.812;-122.286;2023-02-01T08:43:22;11.65;;;6.60;;
72882;SDS011;61017;37.812;-122.286;2023-02-01T08:44:54;14.38;;;7.88;;
72882;SDS011;61017;37.812;-122.286;2023-02-01T08:46:25;14.80;;;9.23;;
72882;SDS011;61017;37.812;-122.286;2023-02-01T08:47:57;16.98;;;11.95;;
72882;SDS011;61017;37.812;-122.286;2023-02-01T08:49:29;17.77;;;13.10;;
72882;SDS011;61017;37.812;-122.286;2023-02-01T08:51:01;30.48;;;21.80;;
72882;SDS011;61017;37.812;-122.286;2023-02-01T08:52:37;52.42;;;37.55;;
72882;SDS011;61017;37.812;-122.286;2023-02-01T08:54:09;48.65;;;35.92;;
72882;SDS011;61017;37.812;-122.286;2023-02-01T08:55:41;50.17;;;37.70;;
72882;SDS011;61017;37.812;-122.286;2023-02-01T08:57:12;45.17;;;33.40;;
72882;SDS011;61017;37.812;-122.286;2023-02-01T08:58:44;41.03;;;29.58;;
72882;SDS011;61017;37.812;-122.286;2023-02-01T09:00:16;36.42;;;26.15;;
72882;SDS011;61017;37.812;-122.286;2023-02-01T09:01:48;36.65;;;26.90;;
72882;SDS011;61017;37.812;-122.286;2023-02-01T09:03:19;32.97;;;25.30;;
72882;SDS011;61017;37.812;-122.286;2023-02-01T09:04:51;34.92;;;24.85;;
72882;SDS011;61017;37.812;-122.286;2023-02-01T09:06:23;32.58;;;24.58;;
72882;SDS011;61017;37.812;-122.286;2023-02-01T09:07:54;37.25;;;25.35;;
72882;SDS011;61017;37.812;-122.286;2023-02-01T09:09:27;33.83;;;24.92;;
72882;SDS011;61017;37.812;-122.286;2023-02-01T09:11:02;33.78;;;24.27;;
72882;SDS011;61017;37.812;-122.286;2023-02-01T09:12:38;31.50;;;23.20;;
72882;SDS011;61017;37.812;-122.286;2023-02-01T09:14:10;32.75;;;22.05;;
72882;SDS011;61017;37.812;-122.286;2023-02-01T09:15:41;30.55;;;22.20;;
72882;SDS011;61017;37.812;-122.286;2023-02-01T09:17:13;28.77;;;20.52;;
72882;SDS011;61017;37.812;-122.286;2023-02-01T09:18:44;32.55;;;20.98;;
72882;SDS011;61017;37.812;-122.286;2023-02-01T09:20:16;27.85;;;19.65;;
72882;SDS011;61017;37.812;-122.286;2023-02-01T09:21:48;27.25;;;19.95;;
72882;SDS011;61017;37.812;-122.286;2023-02-01T09:23:19;27.30;;;18.88;;